Time;durP1;ratioP1;P1;durP2;ratioP2;P2;SDS_P1;SDS_P2;PMS_P1;PMS_P2;Temp;Humidity;BMP_temperature;BMP_pressure;BME280_temperature;BME280_humidity;BME280_pressure;Samples;Min_cycle;Max_cycle;Signal;HPM_P1;HPM_P2
2023/03/02 00:00:10;;;;;;;28.73;16.38;;;;;;;2.58;64.39;99761.91;339772;29;1139;-71
2023/03/02 00:00:22;;;;;;;29.75;15.77;;;;;;;2.57;64.55;99759.34;340541;28;1282;-72
2023/03/02 00:00:34;;;;;;;30.55;15.77;;;;;;;2.53;64.50;99752.50;341976;28;1083;-71
2023/03/02 00:00:47;;;;;;;29.23;16.10;;;;;;;2.55;64.81;99761.06;341820;28;1308;-71
2023/03/02 00:01:05;;;;;;;28.02;15.88;;;;;;;2.54;64.42;99749.94;340791;29;1082;-71
2023/03/02 00:01:17;;;;;;;26.52;15.05;;;;;;;2.55;64.96;99761.91;340669;29;1270;-72
2023/03/02 00:01:34;;;;;;;25.92;14.75;;;;;;;2.56;64.43;99762.78;340718;29;1179;-71
2023/03/02 00:02:00;;;;;;;26.45;14.98;;;;;;;2.56;64.59;99760.22;340749;29;1312;-71
2023/03/02 00:02:16;;;;;;;26.10;15.40;;;;;;;2.60;64.64;99756.78;341535;28;1514;-72
2023/03/02 00:02:29;;;;;;;26.98;15.52;;;;;;;2.60;64.50;99760.22;339914;28;5453;-72
2023/03/02 00:02:42;;;;;;;28.15;15.50;;;;;;;2.62;64.38;99757.66;341212;29;1111;-71
2023/03/02 00:02:55;;;;;;;28.75;15.68;;;;;;;2.63;64.16;99753.38;340349;28;1581;-72
2023/03/02 00:03:08;;;;;;;28.58;15.93;;;;;;;2.64;64.36;99757.66;339518;29;1063;-71
2023/03/02 00:03:20;;;;;;;26.83;15.40;;;;;;;2.63;64.44;99758.50;339882;29;1794;-71
2023/03/02 00:03:34;;;;;;;27.25;15.07;;;;;;;2.62;63.92;99749.94;340920;29;1017;-71
2023/03/02 00:03:46;;;;;;;28.73;15.45;;;;;;;2.65;64.24;99756.78;340811;29;1338;-71
2023/03/02 00:04:00;;;;;;;28.85;15.80;;;;;;;2.64;64.20;99757.66;340626;29;1080;-72
2023/03/02 00:04:30;;;;;;;26.95;15.40;;;;;;;2.64;64.08;99755.94;340840;29;1093;-71
2023/03/02 00:04:47;;;;;;;27.75;15.15;;;;;;;2.64;64.36;99761.06;340892;29;1291;-72
2023/03/02 00:05:00;;;;;;;28.08;15.18;;;;;;;2.64;64.63;99755.94;341601;28;1813;-71
2023/03/02 00:05:13;;;;;;;27.88;15.77;;;;;;;2.64;64.36;99757.66;341849;28;1034;-72
2023/03/02 00:05:27;;;;;;;29.42;16.10;;;;;;;2.66;64.60;99761.94;342404;28;775;-71
2023/03/02 00:05:40;;;;;;;29.77;15.68;;;;;;;2.63;64.41;99758.50;342077;28;1173;-71
2023/03/02 00:05:54;;;;;;;29.15;15.45;;;;;;;2.64;64.65;99763.63;341466;28;1672;-73
2023/03/02 00:06:07;;;;;;;27.15;14.75;;;;;;;2.65;64.54;99755.06;343601;28;1643;-72
2023/03/02 00:06:19;;;;;;;27.38;14.50;;;;;;;2.66;64.61;99754.22;340161;28;1840;-71
2023/03/02 00:06:33;;;;;;;28.85;14.55;;;;;;;2.66;64.53;99756.81;341123;28;1730;-71
2023/03/02 00:06:47;;;;;;;26.75;14.50;;;;;;;2.53;64.29;99752.50;340642;28;1160;-71
2023/03/02 00:07:04;;;;;;;25.90;14.80;;;;;;;2.57;64.38;99754.22;340750;28;1223;-71
2023/03/02 00:07:21;;;;;;;27.67;15.18;;;;;;;2.57;64.32;99754.22;341633;28;1424;-71
2023/03/02 00:07:34;;;;;;;27.15;15.02;;;;;;;2.59;64.44;99749.94;341935;28;1107;-71
2023/03/02 00:07:47;;;;;;;27.48;15.30;;;;;;;2.59;64.64;99757.63;341292;28;1207;-71
2023/03/02 00:08:02;;;;;;;27.20;15.43;;;;;;;2.51;64.51;99760.19;339838;29;1627;-71
2023/03/02 00:08:18;;;;;;;27.58;15.25;;;;;;;2.52;64.82;99751.66;340650;29;872;-71
2023/03/02 00:08:31;;;;;;;29.23;15.85;;;;;;;2.55;64.90;99750.78;339275;29;1937;-71
2023/03/02 00:08:45;;;;;;;28.45;15.93;;;;;;;2.57;64.87;99752.50;341819;28;1124;-73
2023/03/02 00:09:01;;;;;;;28.63;15.73;;;;;;;2.58;64.49;99750.81;340627;29;1587;-71
2023/03/02 00:09:13;;;;;;;28.42;15.57;;;;;;;2.60;64.40;99759.34;340382;29;1115;-72
2023/03/02 00:09:27;;;;;;;27.73;15.02;;;;;;;2.60;64.58;99751.66;340703;29;1056;-71
2023/03/02 00:09:41;;;;;;;26.48;14.63;;;;;;;2.59;64.76;99757.63;340830;29;1241;-71
2023/03/02 00:09:54;;;;;;;27.02;15.10;;;;;;;2.58;64.95;99755.94;340779;28;1050;-71
2023/03/02 00:10:06;;;;;;;26.73;15.25;;;;;;;2.58;65.07;99753.38;340214;28;1685;-71
2023/03/02 00:10:19;;;;;;;26.77;15.45;;;;;;;2.59;64.51;99755.06;342051;28;1029;-72
2023/03/02 00:10:31;;;;;;;27.13;15.40;;;;;;;2.58;64.71;99756.78;342060;28;1233;-71
2023/03/02 00:10:43;;;;;;;27.45;15.20;;;;;;;2.59;64.79;99748.22;340140;28;1827;-71
2023/03/02 00:10:56;;;;;;;28.10;15.60;;;;;;;2.60;64.93;99751.66;340750;29;1059;-71
2023/03/02 00:11:08;;;;;;;28.52;15.73;;;;;;;2.59;64.73;99757.63;340320;29;1641;-72
2023/03/02 00:11:21;;;;;;;26.05;15.10;;;;;;;2.60;64.38;99755.06;340769;29;1179;-71
2023/03/02 00:11:36;;;;;;;24.52;14.70;;;;;;;2.63;64.81;99755.94;340753;29;1051;-71
2023/03/02 00:11:48;;;;;;;27.73;15.15;;;;;;;2.63;64.69;99754.22;340600;29;1341;-71
2023/03/02 00:12:00;;;;;;;28.00;14.80;;;;;;;2.64;64.67;99748.25;340659;29;1638;-73
2023/03/02 00:12:16;;;;;;;29.17;15.32;;;;;;;2.66;64.26;99754.22;340259;29;1410;-73
2023/03/02 00:12:31;;;;;;;29.75;15.85;;;;;;;2.68;64.14;99755.09;340502;29;1242;-71
2023/03/02 00:12:43;;;;;;;28.35;15.38;;;;;;;2.68;64.43;99755.09;340992;28;973;-72
2023/03/02 00:12:56;;;;;;;26.45;15.20;;;;;;;2.68;64.49;99751.69;341046;28;1179;-71
2023/03/02 00:13:10;;;;;;;26.48;15.43;;;;;;;2.68;64.45;99744.81;340844;28;1081;-72
2023/03/02 00:13:22;;;;;;;25.55;14.88;;;;;;;2.69;64.22;99749.09;340447;28;1637;-71
2023/03/02 00:13:37;;;;;;;25.23;14.65;;;;;;;2.71;64.09;99751.66;341013;28;1260;-71
2023/03/02 00:13:49;;;;;;;26.77;15.05;;;;;;;2.72;64.04;99749.09;340835;28;1234;-71
2023/03/02 00:14:01;;;;;;;29.33;15.55;;;;;;;2.71;63.97;99755.06;340753;28;1305;-71
2023/03/02 00:14:12;;;;;;;29.60;15.48;;;;;;;2.72;64.31;99753.38;340996;28;1206;-73
2023/03/02 00:14:24;;;;;;;30.23;15.32;;;;;;;2.70;64.07;99755.94;341110;28;1640;-72
2023/03/02 00:14:37;;;;;;;30.10;15.43;;;;;;;2.72;63.96;99748.25;341583;28;1675;-72
2023/03/02 00:14:48;;;;;;;29.17;15.45;;;;;;;2.73;63.97;99750.81;342042;28;1431;-72
2023/03/02 00:15:00;;;;;;;27.85;15.20;;;;;;;2.69;64.70;99746.53;341530;28;1709;-71
2023/03/02 00:15:12;;;;;;;28.60;15.55;;;;;;;2.67;64.28;99749.94;342172;28;1047;-71
2023/03/02 00:15:25;;;;;;;28.42;15.70;;;;;;;2.66;64.75;99748.25;343412;28;1280;-71
2023/03/02 00:15:37;;;;;;;27.70;14.98;;;;;;;2.59;64.77;99752.50;340753;28;2099;-70
2023/03/02 00:15:49;;;;;;;29.00;15.48;;;;;;;2.58;65.15;99753.38;341686;28;1717;-71
2023/03/02 00:16:01;;;;;;;29.17;16.33;;;;;;;2.60;64.85;99749.94;341095;29;763;-71
2023/03/02 00:16:13;;;;;;;28.08;16.02;;;;;;;2.59;65.00;99752.50;340714;29;1645;-71
2023/03/02 00:16:25;;;;;;;26.83;15.80;;;;;;;2.61;64.56;99750.78;340188;29;1215;-71
2023/03/02 00:16:39;;;;;;;28.17;15.75;;;;;;;2.61;64.81;99750.78;339271;29;1093;-74
2023/03/02 00:16:51;;;;;;;29.70;16.52;;;;;;;2.61;64.84;99750.78;339413;29;1417;-72
2023/03/02 00:17:04;;;;;;;28.20;15.93;;;;;;;2.61;64.36;99753.34;338850;29;1822;-72
2023/03/02 00:17:15;;;;;;;27.55;15.27;;;;;;;2.62;64.72;99752.53;337357;29;1831;-71
2023/03/02 00:17:27;;;;;;;28.23;15.57;;;;;;;2.64;64.51;99755.94;337979;29;1265;-71
2023/03/02 00:17:39;;;;;;;29.38;15.93;;;;;;;2.64;64.65;99755.94;336994;29;1068;-71
2023/03/02 00:17:51;;;;;;;28.90;15.60;;;;;;;2.65;64.74;99751.66;337700;29;1398;-71
2023/03/02 00:18:03;;;;;;;28.73;15.73;;;;;;;2.64;64.57;99748.25;338566;29;1054;-71
2023/03/02 00:18:15;;;;;;;27.48;15.75;;;;;;;2.65;64.28;99757.63;339400;29;1238;-71
2023/03/02 00:18:27;;;;;;;26.02;15.55;;;;;;;2.66;64.52;99748.25;336637;29;4877;-74
2023/03/02 00:18:39;;;;;;;26.55;15.80;;;;;;;2.66;64.54;99750.81;338173;29;4800;-71
2023/03/02 00:18:51;;;;;;;27.35;15.98;;;;;;;2.66;64.58;99749.09;339363;29;1265;-71
2023/03/02 00:19:03;;;;;;;25.77;15.02;;;;;;;2.67;64.76;99750.78;339465;29;1051;-70
2023/03/02 00:19:15;;;;;;;23.73;14.50;;;;;;;2.69;64.14;99754.22;337965;29;1911;-71
2023/03/02 00:19:27;;;;;;;24.33;14.55;;;;;;;2.63;64.23;99743.94;339557;29;1220;-71
2023/03/02 00:19:39;;;;;;;24.85;14.77;;;;;;;2.54;64.91;99746.53;339384;29;1751;-72
2023/03/02 00:19:51;;;;;;;25.75;15.10;;;;;;;2.54;64.89;99751.66;340904;29;1527;-71
2023/03/02 00:20:10;;;;;;;26.58;15.10;;;;;;;2.57;64.97;99746.50;339577;29;1222;-71
2023/03/02 00:20:25;;;;;;;27.08;15.27;;;;;;;2.57;64.72;99749.94;340878;29;1424;-71
2023/03/02 00:20:39;;;;;;;27.42;15.20;;;;;;;2.57;64.95;99749.94;338330;29;1325;-72
2023/03/02 00:20:51;;;;;;;29.60;15.53;;;;;;;2.59;64.66;99747.38;339863;29;1663;-72
2023/03/02 00:21:03;;;;;;;28.97;15.67;;;;;;;2.61;64.39;99748.22;340681;29;1064;-71
2023/03/02 00:21:15;;;;;;;28.63;15.60;;;;;;;2.60;64.33;99744.81;340765;29;1043;-71
2023/03/02 00:21:27;;;;;;;29.20;15.45;;;;;;;2.63;64.65;99748.22;340908;28;1231;-71
2023/03/02 00:21:40;;;;;;;29.02;15.15;;;;;;;2.62;64.52;99752.53;340902;29;1112;-71
2023/03/02 00:21:52;;;;;;;29.20;14.68;;;;;;;2.63;64.62;99743.94;340472;29;1645;-72
2023/03/02 00:22:04;;;;;;;29.73;14.77;;;;;;;2.63;64.90;99748.22;340568;28;1744;-71
2023/03/02 00:22:17;;;;;;;30.08;15.25;;;;;;;2.62;64.81;99751.63;340510;28;1636;-71
2023/03/02 00:22:29;;;;;;;30.30;16.00;;;;;;;2.60;64.56;99749.09;340171;29;1976;-71
2023/03/02 00:22:44;;;;;;;28.88;15.75;;;;;;;2.61;64.34;99750.78;340552;29;904;-71
2023/03/02 00:22:55;;;;;;;28.65;15.85;;;;;;;2.63;64.55;99745.66;340240;28;1613;-71
2023/03/02 00:23:07;;;;;;;27.65;15.20;;;;;;;2.61;64.39;99750.78;341610;28;1051;-71
2023/03/02 00:23:19;;;;;;;28.48;14.88;;;;;;;2.62;64.29;99749.94;341753;28;1705;-71
2023/03/02 00:23:31;;;;;;;28.58;15.05;;;;;;;2.63;64.26;99743.09;340893;28;2041;-71
2023/03/02 00:23:43;;;;;;;28.65;15.40;;;;;;;2.64;64.61;99750.81;341207;28;1126;-71
2023/03/02 00:23:55;;;;;;;27.30;15.40;;;;;;;2.64;64.11;99750.81;340308;28;1545;-71
2023/03/02 00:24:08;;;;;;;27.60;15.20;;;;;;;2.67;64.02;99750.78;340918;28;1852;-71
2023/03/02 00:24:20;;;;;;;26.63;14.88;;;;;;;2.65;64.20;99749.09;341056;28;1066;-73
2023/03/02 00:24:32;;;;;;;23.70;14.30;;;;;;;2.65;64.49;99751.66;340502;28;2759;-72
2023/03/02 00:24:45;;;;;;;26.13;15.05;;;;;;;2.65;64.48;99749.94;339911;29;1289;-72
2023/03/02 00:24:57;;;;;;;30.48;16.10;;;;;;;2.59;64.58;99749.94;340612;29;1104;-72
2023/03/02 00:25:11;;;;;;;30.85;16.05;;;;;;;2.56;64.47;99752.50;340087;28;1820;-71
2023/03/02 00:25:24;;;;;;;28.35;15.15;;;;;;;2.54;64.54;99754.22;339081;29;1869;-72
2023/03/02 00:25:36;;;;;;;27.33;15.10;;;;;;;2.52;64.91;99751.66;339455;29;743;-70
2023/03/02 00:25:48;;;;;;;27.83;15.32;;;;;;;2.51;64.77;99743.94;337694;29;1802;-72
2023/03/02 00:26:00;;;;;;;27.85;15.40;;;;;;;2.49;64.81;99750.78;338051;29;1368;-71
2023/03/02 00:26:12;;;;;;;27.83;15.63;;;;;;;2.51;65.15;99754.19;338300;29;1721;-71
2023/03/02 00:26:24;;;;;;;28.70;16.13;;;;;;;2.52;64.48;99751.66;338498;29;1005;-71
2023/03/02 00:26:36;;;;;;;28.25;16.10;;;;;;;2.53;64.71;99747.38;337320;29;1772;-71
2023/03/02 00:26:50;;;;;;;28.00;15.80;;;;;;;2.55;64.54;99755.91;337611;29;1263;-71
2023/03/02 00:27:02;;;;;;;29.30;15.60;;;;;;;2.56;64.91;99755.06;339250;29;1073;-71
2023/03/02 00:27:14;;;;;;;28.65;15.77;;;;;;;2.50;65.02;99749.94;339436;29;1808;-71
2023/03/02 00:27:28;;;;;;;28.15;16.33;;;;;;;2.50;65.56;99753.34;339156;29;1844;-71
2023/03/02 00:27:43;;;;;;;27.90;16.83;;;;;;;2.50;65.27;99757.63;339358;29;1138;-72
2023/03/02 00:27:55;;;;;;;28.23;16.42;;;;;;;2.50;65.40;99747.38;339458;29;1414;-71
2023/03/02 00:28:07;;;;;;;29.08;15.73;;;;;;;2.51;65.42;99754.19;339844;29;1068;-71
2023/03/02 00:28:19;;;;;;;28.83;15.27;;;;;;;2.52;65.23;99750.78;339877;29;1255;-71
2023/03/02 00:28:32;;;;;;;28.75;15.55;;;;;;;2.48;64.71;99759.34;339959;29;1650;-71
2023/03/02 00:28:44;;;;;;;27.52;15.30;;;;;;;2.33;65.03;99755.00;340627;29;1306;-72
2023/03/02 00:28:56;;;;;;;27.75;15.50;;;;;;;2.30;65.41;99758.44;340690;29;1137;-71
2023/03/02 00:29:08;;;;;;;27.48;15.55;;;;;;;2.35;65.34;99756.72;340802;28;1227;-71
2023/03/02 00:29:20;;;;;;;27.33;15.80;;;;;;;2.39;65.39;99749.91;340804;29;1500;-71
2023/03/02 00:29:32;;;;;;;27.98;15.95;;;;;;;2.34;65.16;99755.03;340152;29;1699;-71
2023/03/02 00:29:44;;;;;;;29.35;16.42;;;;;;;2.31;65.73;99757.56;339841;29;1877;-71
2023/03/02 00:29:56;;;;;;;28.92;16.20;;;;;;;2.36;65.43;99758.44;340646;29;1249;-72
2023/03/02 00:30:10;;;;;;;28.13;15.55;;;;;;;2.34;65.58;99757.59;340856;29;1042;-72
2023/03/02 00:30:23;;;;;;;28.48;15.73;;;;;;;2.29;65.86;99753.28;340867;29;1062;-71
2023/03/02 00:30:37;;;;;;;28.25;15.50;;;;;;;2.31;65.95;99757.56;340202;29;2541;-73
2023/03/02 00:30:49;;;;;;;29.42;16.08;;;;;;;2.34;65.55;99749.91;340223;29;1478;-72
2023/03/02 00:31:05;;;;;;;29.80;16.77;;;;;;;2.35;65.78;99759.28;340703;28;1256;-72
2023/03/02 00:31:17;;;;;;;28.13;16.33;;;;;;;2.33;65.41;99755.88;341078;28;1400;-71
2023/03/02 00:31:29;;;;;;;29.33;16.35;;;;;;;2.34;65.44;99757.59;340910;28;1049;-72
2023/03/02 00:31:41;;;;;;;28.58;16.23;;;;;;;2.36;65.55;99755.03;340411;28;1683;-71
2023/03/02 00:31:53;;;;;;;28.30;15.82;;;;;;;2.35;65.90;99755.88;341071;28;1341;-71
2023/03/02 00:32:05;;;;;;;28.25;15.45;;;;;;;2.35;65.43;99749.03;340987;28;1072;-71
2023/03/02 00:32:17;;;;;;;29.13;15.88;;;;;;;2.37;65.51;99752.47;340930;28;1031;-71
2023/03/02 00:32:29;;;;;;;28.88;15.88;;;;;;;2.37;65.48;99757.63;340279;28;1558;-71
2023/03/02 00:32:41;;;;;;;29.93;16.03;;;;;;;2.39;65.36;99755.91;341056;28;1303;-71
2023/03/02 00:32:53;;;;;;;29.55;15.38;;;;;;;2.42;65.57;99759.34;341364;28;1757;-71
2023/03/02 00:33:05;;;;;;;31.63;16.20;;;;;;;2.42;65.22;99759.34;340686;29;1047;-71
2023/03/02 00:33:18;;;;;;;30.42;16.33;;;;;;;2.43;65.51;99753.34;340632;29;1550;-71
2023/03/02 00:33:33;;;;;;;28.67;16.05;;;;;;;2.43;65.16;99755.91;340542;29;1577;-71
2023/03/02 00:33:45;;;;;;;29.10;15.82;;;;;;;2.44;65.42;99748.22;339728;29;1385;-72
2023/03/02 00:33:57;;;;;;;29.25;15.88;;;;;;;2.44;65.49;99755.06;340829;28;1838;-71
2023/03/02 00:34:09;;;;;;;28.90;15.75;;;;;;;2.28;64.75;99755.00;342137;28;1027;-71
2023/03/02 00:34:21;;;;;;;27.80;15.98;;;;;;;2.28;65.29;99757.56;342145;28;1078;-72
2023/03/02 00:34:33;;;;;;;29.42;16.10;;;;;;;2.27;65.69;99755.84;342103;28;1026;-72
2023/03/02 00:34:45;;;;;;;29.55;16.30;;;;;;;2.29;65.26;99754.16;342090;28;1265;-71
2023/03/02 00:34:57;;;;;;;27.63;15.68;;;;;;;2.31;65.06;99754.16;339499;29;1483;-72
2023/03/02 00:35:09;;;;;;;25.73;15.20;;;;;;;2.33;65.00;99758.44;340419;29;1788;-71
2023/03/02 00:35:21;;;;;;;26.90;15.35;;;;;;;2.35;65.30;99756.72;339622;29;1036;-71
2023/03/02 00:35:40;;;;;;;29.48;16.00;;;;;;;2.33;65.40;99755.88;340698;28;1959;-72
2023/03/02 00:35:52;;;;;;;29.75;15.93;;;;;;;2.36;65.61;99757.59;340745;28;1353;-70
2023/03/02 00:36:05;;;;;;;27.15;15.40;;;;;;;2.37;65.44;99757.63;341050;28;1280;-70
2023/03/02 00:36:19;;;;;;;28.13;15.57;;;;;;;2.39;64.81;99755.91;340902;28;1024;-72
2023/03/02 00:36:31;;;;;;;28.60;15.52;;;;;;;2.42;65.42;99749.06;340745;28;1160;-71
2023/03/02 00:36:43;;;;;;;28.55;15.65;;;;;;;2.43;64.98;99750.75;340283;28;2960;-72
2023/03/02 00:36:55;;;;;;;30.58;15.77;;;;;;;2.36;65.54;99755.88;339780;29;1054;-71
2023/03/02 00:37:07;;;;;;;30.60;15.73;;;;;;;2.37;65.49;99757.63;340974;28;1558;-71
2023/03/02 00:37:19;;;;;;;29.10;15.93;;;;;;;2.35;65.34;99758.44;340177;28;1665;-72
2023/03/02 00:37:33;;;;;;;30.65;16.38;;;;;;;2.30;65.88;99755.88;341093;28;1704;-72
2023/03/02 00:37:45;;;;;;;29.88;15.80;;;;;;;2.33;65.82;99753.28;341061;28;1306;-71
2023/03/02 00:37:57;;;;;;;29.80;16.02;;;;;;;2.35;65.39;99754.16;340863;28;1595;-71
2023/03/02 00:38:09;;;;;;;27.98;15.38;;;;;;;2.29;65.21;99749.00;341127;28;1305;-71
2023/03/02 00:38:21;;;;;;;27.02;15.13;;;;;;;2.31;65.70;99751.59;340697;28;2018;-71
2023/03/02 00:38:33;;;;;;;26.25;15.27;;;;;;;2.32;65.37;99754.16;341098;28;1172;-71
2023/03/02 00:38:46;;;;;;;26.75;15.48;;;;;;;2.34;65.44;99757.59;340887;28;1181;-72
2023/03/02 00:38:58;;;;;;;27.05;15.57;;;;;;;2.36;65.44;99753.31;340251;28;1207;-71
2023/03/02 00:39:10;;;;;;;28.85;16.02;;;;;;;2.36;65.73;99748.19;340925;28;1359;-71
2023/03/02 00:39:22;;;;;;;31.23;16.50;;;;;;;2.37;65.30;99752.47;339722;29;1608;-71
2023/03/02 00:39:34;;;;;;;30.42;16.40;;;;;;;2.38;65.29;99754.19;340075;29;1807;-71
2023/03/02 00:39:46;;;;;;;29.02;15.80;;;;;;;2.28;65.35;99756.72;340619;29;1168;-71
2023/03/02 00:39:58;;;;;;;29.83;16.05;;;;;;;2.29;65.30;99754.16;339478;29;1106;-71
2023/03/02 00:40:10;;;;;;;30.55;16.42;;;;;;;2.31;65.82;99752.44;339494;29;1761;-70
2023/03/02 00:40:22;;;;;;;30.85;16.42;;;;;;;2.34;65.59;99751.63;340439;29;1401;-73
2023/03/02 00:40:35;;;;;;;29.17;16.00;;;;;;;2.35;65.65;99751.59;341385;28;1772;-73
2023/03/02 00:40:48;;;;;;;29.25;15.90;;;;;;;2.35;65.53;99754.16;340839;29;1409;-72
2023/03/02 00:41:00;;;;;;;29.42;16.15;;;;;;;2.35;65.76;99754.16;340098;28;2014;-71
2023/03/02 00:41:13;;;;;;;29.30;16.15;;;;;;;2.33;65.58;99753.28;340086;29;1898;-70
2023/03/02 00:41:26;;;;;;;28.92;16.13;;;;;;;2.33;65.65;99755.88;339470;29;1428;-71
2023/03/02 00:41:38;;;;;;;29.48;15.63;;;;;;;2.36;65.61;99755.88;341434;28;1240;-71
2023/03/02 00:41:50;;;;;;;31.35;16.08;;;;;;;2.38;65.60;99749.03;341964;28;1286;-71
2023/03/02 00:42:02;;;;;;;30.52;16.05;;;;;;;2.40;65.45;99752.47;342161;28;1119;-71
2023/03/02 00:42:14;;;;;;;29.05;16.05;;;;;;;2.40;65.43;99756.75;342172;28;1038;-71
2023/03/02 00:42:26;;;;;;;27.83;15.75;;;;;;;2.39;65.46;99753.34;341948;28;1172;-71
2023/03/02 00:42:38;;;;;;;27.88;15.98;;;;;;;2.41;65.76;99743.06;341302;28;1735;-71
2023/03/02 00:42:50;;;;;;;28.75;15.40;;;;;;;2.36;65.25;99745.63;341595;28;1111;-71
2023/03/02 00:43:02;;;;;;;30.15;15.48;;;;;;;2.38;65.19;99756.75;341068;28;1625;-71
2023/03/02 00:43:15;;;;;;;29.58;15.63;;;;;;;2.42;65.69;99754.19;341281;28;1802;-71
2023/03/02 00:43:27;;;;;;;28.95;15.82;;;;;;;2.45;65.03;99749.06;342847;28;1791;-72
2023/03/02 00:43:40;;;;;;;30.38;16.00;;;;;;;2.37;65.53;99752.47;341730;28;1720;-73
2023/03/02 00:43:51;;;;;;;28.83;15.80;;;;;;;2.38;65.34;99751.63;340517;29;1239;-71
2023/03/02 00:44:03;;;;;;;29.75;15.75;;;;;;;2.36;65.44;99745.63;340722;28;1283;-72
2023/03/02 00:44:18;;;;;;;28.58;15.77;;;;;;;2.35;65.48;99743.91;340830;29;1019;-72
2023/03/02 00:44:30;;;;;;;27.52;15.45;;;;;;;2.34;65.49;99747.31;339727;29;1039;-71
2023/03/02 00:44:42;;;;;;;28.60;15.43;;;;;;;2.30;65.05;99750.75;338129;29;1083;-71
2023/03/02 00:44:58;;;;;;;29.65;15.43;;;;;;;2.29;65.48;99749.00;338684;29;2287;-71
2023/03/02 00:45:10;;;;;;;29.55;15.82;;;;;;;2.29;65.73;99754.16;337782;29;1076;-71
2023/03/02 00:45:22;;;;;;;27.48;15.88;;;;;;;2.30;65.28;99749.91;338139;29;1125;-71
2023/03/02 00:45:34;;;;;;;29.45;16.25;;;;;;;2.30;65.59;99752.47;339120;29;1957;-71
2023/03/02 00:45:46;;;;;;;30.13;15.93;;;;;;;2.30;65.36;99748.19;339475;29;1264;-71
2023/03/02 00:45:58;;;;;;;29.15;15.65;;;;;;;2.30;65.36;99745.63;339710;29;1700;-72
2023/03/02 00:46:14;;;;;;;28.70;15.07;;;;;;;2.20;65.07;99749.00;340930;29;1302;-71
2023/03/02 00:46:27;;;;;;;27.80;15.55;;;;;;;2.23;65.58;99748.16;340598;29;1044;-71
2023/03/02 00:46:39;;;;;;;28.83;15.75;;;;;;;2.23;65.20;99749.00;340861;28;1300;-71
2023/03/02 00:46:51;;;;;;;29.00;15.90;;;;;;;2.23;65.63;99743.88;340247;28;1481;-72
2023/03/02 00:47:03;;;;;;;28.52;16.27;;;;;;;2.24;65.62;99750.72;340505;28;1568;-71
2023/03/02 00:47:15;;;;;;;28.02;15.95;;;;;;;2.24;66.00;99747.31;340785;28;1540;-71
2023/03/02 00:47:28;;;;;;;27.35;15.27;;;;;;;2.20;65.34;99747.28;340683;29;1200;-72
2023/03/02 00:47:40;;;;;;;29.30;16.00;;;;;;;2.21;65.74;99750.69;339475;29;1032;-71
2023/03/02 00:47:53;;;;;;;29.52;16.35;;;;;;;2.07;65.80;99737.00;339229;29;1333;-72
2023/03/02 00:48:05;;;;;;;28.87;16.33;;;;;;;2.11;65.84;99748.97;339095;29;1716;-72
2023/03/02 00:48:17;;;;;;;29.48;16.55;;;;;;;2.13;66.04;99747.25;338258;29;1330;-71
2023/03/02 00:48:29;;;;;;;28.45;15.95;;;;;;;2.16;65.82;99753.25;338204;29;1075;-71
2023/03/02 00:48:41;;;;;;;28.73;15.88;;;;;;;2.18;65.73;99754.13;338148;29;1077;-71
2023/03/02 00:48:53;;;;;;;26.35;14.95;;;;;;;2.22;65.91;99742.16;339294;29;1408;-71
2023/03/02 00:49:05;;;;;;;27.73;14.98;;;;;;;2.21;65.78;99745.56;338143;29;1165;-71
2023/03/02 00:49:17;;;;;;;27.95;15.25;;;;;;;2.15;65.98;99748.13;337739;29;1743;-71
2023/03/02 00:49:29;;;;;;;29.90;15.77;;;;;;;2.12;65.80;99745.56;338949;29;1284;-71
2023/03/02 00:49:41;;;;;;;29.70;15.57;;;;;;;2.16;66.26;99753.25;339691;29;1220;-71
2023/03/02 00:49:53;;;;;;;30.70;16.10;;;;;;;2.20;66.25;99754.13;340420;29;1720;-71
2023/03/02 00:50:05;;;;;;;32.00;16.13;;;;;;;2.18;66.25;99751.56;340822;29;1055;-71
2023/03/02 00:50:17;;;;;;;32.15;16.75;;;;;;;2.21;66.13;99750.69;340171;29;1588;-71
2023/03/02 00:50:29;;;;;;;32.42;17.08;;;;;;;2.23;65.74;99754.13;339936;28;1661;-71
2023/03/02 00:50:41;;;;;;;29.55;16.92;;;;;;;2.26;66.13;99748.19;340910;29;1205;-71
2023/03/02 00:50:53;;;;;;;28.55;16.20;;;;;;;2.23;66.22;99751.56;340790;29;1011;-71
2023/03/02 00:51:06;;;;;;;28.17;15.93;;;;;;;2.25;65.42;99747.28;340469;28;1207;-71
2023/03/02 00:51:19;;;;;;;27.85;15.98;;;;;;;2.22;65.97;99749.88;340400;28;1757;-71
2023/03/02 00:51:31;;;;;;;29.88;16.23;;;;;;;2.18;65.88;99750.72;339835;29;1105;-72
2023/03/02 00:51:43;;;;;;;30.85;16.38;;;;;;;2.15;65.53;99748.13;339789;29;1258;-72
2023/03/02 00:51:56;;;;;;;30.35;16.55;;;;;;;2.18;66.09;99743.88;340549;28;1594;-73
2023/03/02 00:52:08;;;;;;;30.10;16.30;;;;;;;2.19;65.75;99742.16;340633;29;1939;-73
2023/03/02 00:52:21;;;;;;;32.65;16.30;;;;;;;2.14;65.78;99746.44;341463;29;1413;-72
2023/03/02 00:52:32;;;;;;;34.67;16.50;;;;;;;2.19;66.27;99749.84;340664;28;2281;-72
2023/03/02 00:52:44;;;;;;;32.72;17.08;;;;;;;2.07;66.28;99748.09;340861;28;1234;-72
2023/03/02 00:52:56;;;;;;;30.35;16.85;;;;;;;2.07;66.25;99742.97;340401;28;1666;-71
2023/03/02 00:53:09;;;;;;;29.70;16.77;;;;;;;2.11;66.13;99744.72;341908;28;1027;-72
2023/03/02 00:53:21;;;;;;;29.55;16.30;;;;;;;2.13;66.18;99743.00;342394;28;1272;-73
2023/03/02 00:53:35;;;;;;;29.35;16.02;;;;;;;2.17;65.87;99749.88;339983;28;1895;-73
2023/03/02 00:53:46;;;;;;;30.88;16.02;;;;;;;2.19;65.90;99752.41;341373;28;1534;-72
2023/03/02 00:54:01;;;;;;;31.50;16.45;;;;;;;2.19;66.32;99743.03;341629;28;1366;-71
2023/03/02 00:54:13;;;;;;;29.95;16.35;;;;;;;2.23;66.06;99754.13;342601;28;1057;-72
2023/03/02 00:54:25;;;;;;;29.33;16.10;;;;;;;2.25;65.69;99747.28;341572;28;1612;-72
2023/03/02 00:54:37;;;;;;;29.52;16.02;;;;;;;2.25;66.05;99749.84;340857;29;1935;-72
2023/03/02 00:54:49;;;;;;;28.85;15.85;;;;;;;2.18;65.73;99749.00;340371;28;1444;-72
2023/03/02 00:55:01;;;;;;;28.00;15.95;;;;;;;2.23;65.58;99743.88;340456;28;1563;-72
2023/03/02 00:55:13;;;;;;;28.00;15.93;;;;;;;2.16;65.88;99747.28;340930;28;1733;-72
2023/03/02 00:55:25;;;;;;;28.02;15.45;;;;;;;2.18;66.13;99745.59;339749;29;1265;-71
2023/03/02 00:55:37;;;;;;;27.50;15.27;;;;;;;2.20;65.96;99739.59;339404;28;1855;-72
2023/03/02 00:55:53;;;;;;;28.10;15.95;;;;;;;2.15;66.13;99745.56;340813;29;1583;-72
2023/03/02 00:56:07;;;;;;;28.83;16.15;;;;;;;2.18;66.12;99746.44;340707;29;1007;-72
2023/03/02 00:56:19;;;;;;;29.20;15.98;;;;;;;2.20;65.98;99738.75;340926;29;1196;-72
2023/03/02 00:56:31;;;;;;;29.00;16.02;;;;;;;2.21;66.01;99743.00;340979;29;1072;-72
2023/03/02 00:56:43;;;;;;;28.90;16.13;;;;;;;2.22;66.13;99742.16;339689;29;1689;-72
2023/03/02 00:56:56;;;;;;;29.27;15.98;;;;;;;2.24;65.94;99739.63;341055;28;1036;-71
2023/03/02 00:57:08;;;;;;;31.38;16.75;;;;;;;2.24;66.01;99745.59;341658;28;1609;-72
2023/03/02 00:57:20;;;;;;;33.08;17.00;;;;;;;2.27;65.70;99739.63;342368;28;1221;-72
2023/03/02 00:57:32;;;;;;;31.83;16.58;;;;;;;2.29;65.84;99738.75;341728;28;1179;-72
2023/03/02 00:57:54;;;;;;;31.17;16.27;;;;;;;2.32;65.96;99743.91;340778;28;1386;-72
2023/03/02 00:58:06;;;;;;;30.35;16.15;;;;;;;2.15;65.67;99745.56;340028;29;1802;-71
2023/03/02 00:58:17;;;;;;;29.55;15.82;;;;;;;2.14;66.22;99742.16;340800;29;1707;-71
2023/03/02 00:58:30;;;;;;;30.02;16.55;;;;;;;2.18;66.28;99740.47;341511;28;1520;-71
2023/03/02 00:58:42;;;;;;;30.70;16.95;;;;;;;2.22;65.85;99739.59;340613;28;1881;-74
2023/03/02 00:58:54;;;;;;;31.02;16.48;;;;;;;2.23;65.67;99738.75;341037;28;1270;-72
2023/03/02 00:59:26;;;;;;;32.22;16.10;;;;;;;2.26;66.15;99738.75;340809;28;1220;-73
2023/03/02 00:59:38;;;;;;;28.70;15.57;;;;;;;2.32;65.93;99740.50;339631;29;1132;-72
2023/03/02 00:59:50;;;;;;;29.70;16.10;;;;;;;2.26;65.54;99740.47;340496;29;1266;-71
2023/03/02 01:00:03;;;;;;;28.65;16.20;;;;;;;2.17;65.51;99736.16;340259;28;1707;-71
2023/03/02 01:00:16;;;;;;;28.77;16.33;;;;;;;2.08;65.59;99738.72;340865;28;1789;-71
2023/03/02 01:00:28;;;;;;;30.27;16.33;;;;;;;2.10;66.24;99737.00;341036;28;1135;-73
2023/03/02 01:00:42;;;;;;;29.92;16.20;;;;;;;2.08;66.16;99738.72;341046;28;1187;-71
2023/03/02 01:00:54;;;;;;;27.00;15.70;;;;;;;2.08;66.61;99743.84;341086;28;1144;-70
2023/03/02 01:01:09;;;;;;;27.70;16.08;;;;;;;2.08;66.46;99743.84;340306;28;1647;-71
2023/03/02 01:01:21;;;;;;;27.58;16.05;;;;;;;2.10;66.39;99737.00;339397;28;1661;-72